Time;durP1;ratioP1;P1;durP2;ratioP2;P2;SDS_P1;SDS_P2;PMS_P1;PMS_P2;Temp;Humidity;BMP_temperature;BMP_pressure;BME280_temperature;BME280_humidity;BME280_pressure;Samples;Min_cycle;Max_cycle;Signal;HPM_P1;HPM_P2
2022/10/08 00:00:52;;;;;;;5.65;3.63;;;17.50;82.60;;;;;;5029916;28;20017;-75
2022/10/08 00:03:19;;;;;;;9.25;3.47;;;17.50;82.80;;;;;;5029338;28;20128;-75
2022/10/08 00:06:02;;;;;;;9.60;4.00;;;17.40;82.80;;;;;;5033347;28;20025;-75
2022/10/08 00:08:29;;;;;;;11.35;3.80;;;17.40;83.00;;;;;;5032058;28;20041;-75
2022/10/08 00:10:59;;;;;;;7.55;3.90;;;17.40;83.00;;;;;;5033589;28;20037;-75
2022/10/08 00:13:27;;;;;;;9.30;4.00;;;17.40;83.30;;;;;;5033170;28;20021;-75
2022/10/08 00:15:53;;;;;;;5.30;3.38;;;17.40;83.20;;;;;;5033214;28;20022;-75
2022/10/08 00:18:19;;;;;;;8.40;3.75;;;17.40;83.00;;;;;;5032062;28;20030;-75
2022/10/08 00:20:46;;;;;;;13.30;3.78;;;17.30;83.10;;;;;;5032881;28;20018;-75
2022/10/08 00:23:12;;;;;;;9.80;3.65;;;17.30;83.10;;;;;;5032576;28;20045;-75
2022/10/08 00:25:40;;;;;;;7.72;3.60;;;17.30;83.00;;;;;;5031585;28;20026;-75
2022/10/08 00:28:06;;;;;;;12.10;3.70;;;17.30;83.10;;;;;;5033273;28;20112;-75
2022/10/08 00:30:35;;;;;;;5.97;3.33;;;17.30;83.20;;;;;;5032977;28;20049;-75
2022/10/08 00:33:01;;;;;;;12.80;3.75;;;17.20;83.20;;;;;;5032809;28;20032;-75
2022/10/08 00:35:27;;;;;;;11.27;4.07;;;17.20;83.20;;;;;;5031326;28;20030;-76
2022/10/08 00:37:52;;;;;;;11.38;3.95;;;17.20;83.20;;;;;;5032828;28;20033;-75
2022/10/08 00:40:18;;;;;;;7.63;3.67;;;17.20;83.30;;;;;;5032643;28;20022;-75
2022/10/08 00:42:43;;;;;;;6.35;3.50;;;17.20;83.40;;;;;;5032436;28;20460;-75
2022/10/08 00:45:13;;;;;;;10.65;3.40;;;17.20;83.00;;;;;;5032510;28;20022;-75
2022/10/08 00:47:42;;;;;;;7.10;3.00;;;17.20;83.10;;;;;;5032509;28;20033;-76
2022/10/08 00:50:08;;;;;;;8.95;3.58;;;17.10;83.10;;;;;;5031120;28;20028;-75
2022/10/08 00:52:41;;;;;;;6.15;3.47;;;17.10;83.20;;;;;;5032739;28;20049;-75
2022/10/08 00:55:07;;;;;;;;;;;17.00;83.20;;;;;;5032814;28;20053;-75
2022/10/08 00:57:34;;;;;;;5.68;2.95;;;17.00;83.20;;;;;;5063724;28;19955;-76
2022/10/08 01:00:09;;;;;;;8.07;3.00;;;17.00;83.40;;;;;;5028553;28;20025;-76
2022/10/08 01:02:36;;;;;;;6.45;3.00;;;17.00;83.70;;;;;;5029711;28;20065;-76
2022/10/08 01:05:03;;;;;;;8.50;3.45;;;17.00;83.90;;;;;;5031044;28;20033;-75
2022/10/08 01:07:56;;;;;;;5.72;2.95;;;17.00;83.70;;;;;;5032218;28;20121;-75
2022/10/08 01:10:53;;;;;;;9.10;3.42;;;17.00;83.50;;;;;;5032102;28;20074;-75
2022/10/08 01:13:40;;;;;;;5.13;3.13;;;16.90;83.60;;;;;;5031673;28;20029;-75
2022/10/08 01:16:30;;;;;;;6.18;3.22;;;16.90;83.70;;;;;;5031753;28;20057;-75
2022/10/08 01:19:02;;;;;;;7.93;2.97;;;16.90;83.80;;;;;;5032207;28;20026;-76
2022/10/08 01:21:29;;;;;;;9.30;3.67;;;16.90;83.80;;;;;;5031952;28;20072;-76
2022/10/08 01:24:20;;;;;;;7.68;3.28;;;16.90;83.80;;;;;;5031918;28;20034;-75
2022/10/08 01:27:00;;;;;;;9.93;4.03;;;16.80;83.80;;;;;;5032237;28;20078;-75
2022/10/08 01:29:40;;;;;;;10.20;3.47;;;16.80;83.80;;;;;;5031715;28;20294;-75
2022/10/08 01:32:20;;;;;;;5.35;3.40;;;16.80;83.80;;;;;;5031974;28;20101;-75
2022/10/08 01:34:51;;;;;;;6.38;3.53;;;16.80;83.90;;;;;;5031905;28;20429;-75
2022/10/08 01:37:32;;;;;;;7.57;3.50;;;16.70;83.90;;;;;;5030582;28;20064;-75
2022/10/08 01:40:04;;;;;;;7.28;3.22;;;16.80;83.90;;;;;;5031816;28;20124;-75
2022/10/08 01:42:32;;;;;;;12.98;2.88;;;16.70;84.00;;;;;;5031507;28;20498;-76
2022/10/08 01:45:04;;;;;;;14.63;3.70;;;16.70;83.90;;;;;;5031975;28;20021;-76
2022/10/08 01:47:31;;;;;;;6.95;3.05;;;16.70;84.00;;;;;;5030604;28;20086;-76
2022/10/08 01:50:19;;;;;;;8.43;3.22;;;16.60;83.90;;;;;;5032146;28;20052;-75
2022/10/08 01:52:57;;;;;;;19.05;3.63;;;16.60;83.90;;;;;;5031188;28;20057;-76
2022/10/08 01:55:37;;;;;;;6.63;3.20;;;16.60;83.90;;;;;;5031670;28;20022;-75
2022/10/08 01:58:08;;;;;;;13.50;3.70;;;16.60;84.40;;;;;;5031574;28;20026;-75
2022/10/08 02:00:36;;;;;;;6.35;2.90;;;16.50;83.60;;;;;;5031673;28;20049;-75
2022/10/08 02:03:02;;;;;;;8.52;3.35;;;16.50;83.70;;;;;;5031390;28;20383;-75
2022/10/08 02:05:33;;;;;;;7.82;3.30;;;16.50;83.80;;;;;;5031541;28;20029;-75
2022/10/08 02:08:00;;;;;;;9.23;3.45;;;16.50;83.80;;;;;;5030228;28;20037;-76
2022/10/08 02:10:26;;;;;;;10.10;3.35;;;16.40;83.80;;;;;;5031436;28;20022;-75
2022/10/08 02:12:52;;;;;;;15.18;3.45;;;16.40;83.80;;;;;;5031308;28;20036;-75
2022/10/08 02:15:27;;;;;;;11.40;2.85;;;16.40;83.80;;;;;;5031252;28;20025;-75
2022/10/08 02:18:06;;;;;;;7.80;3.40;;;16.40;83.90;;;;;;5031499;28;20026;-75
2022/10/08 02:20:45;;;;;;;6.07;2.70;;;16.40;84.00;;;;;;5030015;28;20091;-75
2022/10/08 02:23:20;;;;;;;14.48;2.95;;;16.40;84.30;;;;;;5031308;28;20483;-76
2022/10/08 02:25:56;;;;;;;8.85;2.97;;;16.30;84.40;;;;;;5130759;27;20030;-77
2022/10/08 02:28:44;;;;;;;12.80;3.00;;;16.30;84.60;;;;;;5134532;27;20080;-75
2022/10/08 02:31:13;;;;;;;8.00;3.38;;;16.30;84.70;;;;;;5135057;27;20171;-75
2022/10/08 02:33:46;;;;;;;9.10;3.17;;;16.30;84.60;;;;;;5135249;27;20027;-75
2022/10/08 02:36:16;;;;;;;11.40;3.05;;;16.30;84.60;;;;;;5135064;27;20139;-75
2022/10/08 02:38:53;;;;;;;16.35;3.63;;;16.30;84.70;;;;;;5135010;27;20071;-75
2022/10/08 02:41:23;;;;;;;11.10;2.92;;;16.30;84.70;;;;;;5135114;27;20042;-75
2022/10/08 02:43:52;;;;;;;9.10;3.40;;;16.20;84.80;;;;;;5135017;27;20031;-75
2022/10/08 02:46:21;;;;;;;13.05;3.50;;;16.20;84.80;;;;;;5135091;27;20458;-77
2022/10/08 02:48:58;;;;;;;7.90;3.00;;;16.20;84.80;;;;;;5134925;27;20491;-75
2022/10/08 02:51:26;;;;;;;9.25;3.38;;;16.20;85.00;;;;;;5134613;27;20015;-75
2022/10/08 02:53:52;;;;;;;9.98;3.20;;;16.20;84.90;;;;;;5133188;27;20055;-76
2022/10/08 02:56:33;;;;;;;9.32;3.35;;;16.10;85.00;;;;;;5135143;27;20563;-76
2022/10/08 02:58:59;;;;;;;12.93;3.28;;;16.10;85.20;;;;;;5010958;28;20422;-76
2022/10/08 03:01:47;;;;;;;7.07;3.50;;;16.10;85.20;;;;;;5010986;28;20049;-75
2022/10/08 03:04:23;;;;;;;9.05;3.38;;;16.10;85.10;;;;;;5010734;28;20114;-75
2022/10/08 03:06:51;;;;;;;10.35;3.20;;;16.10;85.00;;;;;;5011032;28;20395;-76
2022/10/08 03:09:18;;;;;;;5.38;3.20;;;16.00;85.20;;;;;;5010877;28;20501;-75
2022/10/08 03:11:44;;;;;;;9.57;3.30;;;16.00;85.40;;;;;;5011158;28;20363;-74
2022/10/08 03:14:13;;;;;;;13.32;2.88;;;16.00;85.50;;;;;;5010830;28;20026;-75
2022/10/08 03:16:44;;;;;;;11.02;3.00;;;16.00;85.90;;;;;;5010550;28;20429;-75
2022/10/08 03:19:16;;;;;;;10.63;3.30;;;16.00;85.60;;;;;;5010473;28;20056;-75
2022/10/08 03:21:44;;;;;;;10.65;2.97;;;16.00;85.50;;;;;;5010768;28;20029;-75
2022/10/08 03:24:12;;;;;;;9.40;2.88;;;16.00;85.40;;;;;;5010546;28;20069;-75
2022/10/08 03:26:38;;;;;;;5.63;3.28;;;16.00;85.20;;;;;;5010279;28;20030;-75
2022/10/08 03:29:05;;;;;;;8.77;3.50;;;15.90;85.10;;;;;;5010452;28;20471;-75
2022/10/08 03:31:31;;;;;;;7.30;3.03;;;15.90;85.50;;;;;;5010663;28;20086;-75
2022/10/08 03:33:57;;;;;;;5.50;3.20;;;15.90;85.70;;;;;;5010600;28;20022;-75
2022/10/08 03:36:24;;;;;;;4.53;2.88;;;15.90;85.50;;;;;;5010339;28;20399;-75
2022/10/08 03:38:50;;;;;;;6.78;3.15;;;15.90;85.40;;;;;;5010044;28;20030;-76
2022/10/08 03:41:17;;;;;;;6.28;3.00;;;15.80;85.40;;;;;;5009219;28;20037;-75
2022/10/08 03:43:43;;;;;;;6.88;3.10;;;15.80;85.50;;;;;;5010134;28;20091;-75
2022/10/08 03:46:10;;;;;;;5.50;3.30;;;15.80;85.60;;;;;;5010494;28;20473;-75
2022/10/08 03:48:36;;;;;;;6.65;3.40;;;15.70;85.60;;;;;;5010428;28;20129;-76
2022/10/08 03:51:06;;;;;;;11.20;3.42;;;15.70;85.70;;;;;;5010148;28;20128;-75
2022/10/08 03:53:34;;;;;;;9.93;3.35;;;15.70;85.90;;;;;;5010120;28;20518;-76
2022/10/08 03:56:01;;;;;;;5.43;3.00;;;15.70;86.00;;;;;;5010282;28;20022;-75
2022/10/08 03:58:27;;;;;;;5.05;3.05;;;15.60;85.80;;;;;;5010128;28;20086;-76
2022/10/08 04:01:01;;;;;;;6.07;3.40;;;15.70;86.00;;;;;;5009959;28;20030;-75
2022/10/08 04:03:28;;;;;;;7.00;3.42;;;15.60;86.00;;;;;;5010024;28;20034;-76
2022/10/08 04:05:53;;;;;;;8.07;3.33;;;15.60;86.00;;;;;;5008897;28;20022;-75
2022/10/08 04:08:20;;;;;;;7.18;3.42;;;15.60;86.20;;;;;;5010273;28;20499;-75
2022/10/08 04:10:46;;;;;;;6.05;3.22;;;15.60;86.20;;;;;;5010092;28;20033;-75
2022/10/08 04:13:11;;;;;;;8.00;3.75;;;15.60;86.10;;;;;;5041917;28;20026;-75
2022/10/08 04:15:37;;;;;;;10.13;3.08;;;15.50;86.10;;;;;;5010221;28;20026;-76
2022/10/08 04:18:03;;;;;;;8.30;3.38;;;15.50;85.90;;;;;;5008912;28;20026;-75
2022/10/08 04:20:28;;;;;;;8.55;3.42;;;15.40;85.80;;;;;;5010355;28;20057;-76
2022/10/08 04:22:54;;;;;;;5.45;2.95;;;15.50;85.70;;;;;;5009967;28;20033;-76
2022/10/08 04:25:19;;;;;;;9.85;3.38;;;15.50;85.80;;;;;;5009639;28;20022;-75
2022/10/08 04:27:48;;;;;;;6.00;3.38;;;15.50;85.70;;;;;;5009879;28;20034;-75
2022/10/08 04:30:14;;;;;;;8.07;3.30;;;15.50;85.80;;;;;;5010088;28;20041;-75
2022/10/08 04:32:40;;;;;;;8.55;3.22;;;15.40;85.70;;;;;;5009574;28;20062;-75
2022/10/08 04:35:06;;;;;;;4.82;3.17;;;15.40;85.70;;;;;;5009593;28;20076;-76
2022/10/08 04:37:32;;;;;;;15.00;4.40;;;15.40;85.70;;;;;;5009753;28;20018;-76
2022/10/08 04:39:58;;;;;;;9.32;3.67;;;15.40;85.90;;;;;;5009680;28;20086;-75
2022/10/08 04:42:23;;;;;;;8.45;3.60;;;15.40;86.00;;;;;;5008405;28;20030;-75
2022/10/08 04:44:49;;;;;;;9.57;3.58;;;15.40;86.30;;;;;;5009933;28;20026;-75
2022/10/08 04:47:15;;;;;;;5.22;3.75;;;15.40;86.40;;;;;;5008145;28;20105;-76
2022/10/08 04:49:41;;;;;;;7.35;3.80;;;15.40;86.50;;;;;;5010144;28;20033;-76
2022/10/08 04:52:07;;;;;;;9.48;3.75;;;15.40;86.80;;;;;;5012938;28;20079;-75
2022/10/08 04:54:33;;;;;;;7.53;3.78;;;15.40;86.80;;;;;;5012944;28;20030;-76
2022/10/08 04:56:58;;;;;;;8.13;3.70;;;15.40;87.00;;;;;;5012700;28;20034;-76
2022/10/08 04:59:24;;;;;;;6.85;4.45;;;15.40;87.10;;;;;;5012924;28;20391;-75
2022/10/08 05:01:51;;;;;;;11.65;4.72;;;15.40;87.20;;;;;;5012794;28;20382;-75
2022/10/08 05:04:17;;;;;;;7.53;4.10;;;15.40;87.60;;;;;;5012694;28;20494;-75
2022/10/08 05:06:43;;;;;;;10.05;4.07;;;15.40;87.50;;;;;;5012269;28;20022;-76
2022/10/08 05:09:08;;;;;;;10.18;3.50;;;15.40;87.40;;;;;;5012742;28;20109;-75
2022/10/08 05:11:34;;;;;;;11.27;3.60;;;15.30;87.30;;;;;;5012887;28;20030;-76
2022/10/08 05:14:00;;;;;;;7.82;3.67;;;15.40;87.40;;;;;;5012626;28;20083;-76
2022/10/08 05:16:27;;;;;;;9.98;3.65;;;15.30;87.40;;;;;;5012166;28;20074;-75
2022/10/08 05:18:52;;;;;;;9.98;4.00;;;15.30;87.40;;;;;;5012362;28;20029;-75
2022/10/08 05:21:21;;;;;;;12.85;4.45;;;15.30;87.30;;;;;;5012642;28;20019;-74
2022/10/08 05:23:47;;;;;;;14.50;4.28;;;15.30;87.40;;;;;;5044267;28;20045;-75
2022/10/08 05:26:19;;;;;;;14.18;4.15;;;15.30;87.50;;;;;;5012465;28;20379;-76
2022/10/08 05:28:46;;;;;;;9.90;4.05;;;15.30;87.60;;;;;;5012474;28;20138;-75
2022/10/08 05:31:13;;;;;;;15.13;3.50;;;15.20;87.40;;;;;;5045310;28;20470;-86
2022/10/08 05:33:39;;;;;;;14.30;4.18;;;15.30;87.40;;;;;;5012434;28;20021;-74
2022/10/08 05:36:06;;;;;;;8.93;3.72;;;15.20;87.80;;;;;;5012524;28;20475;-75
2022/10/08 05:38:33;;;;;;;10.25;3.70;;;15.30;88.60;;;;;;5012361;28;20030;-75
2022/10/08 05:41:13;;;;;;;15.20;3.85;;;15.30;87.90;;;;;;5011892;28;20034;-76
2022/10/08 05:43:39;;;;;;;16.73;4.43;;;15.30;88.00;;;;;;5012256;28;20034;-75
2022/10/08 05:46:06;;;;;;;20.55;4.10;;;15.30;88.10;;;;;;5012074;28;20029;-75
2022/10/08 05:48:32;;;;;;;7.82;3.97;;;15.30;88.00;;;;;;5011978;28;20033;-75
2022/10/08 05:51:04;;;;;;;10.35;3.83;;;15.30;88.20;;;;;;5011375;28;20028;-75
2022/10/08 05:53:30;;;;;;;17.85;4.10;;;15.30;88.50;;;;;;5011778;28;20046;-75
2022/10/08 05:56:03;;;;;;;14.85;4.53;;;15.30;88.50;;;;;;5012218;28;20057;-74
2022/10/08 05:58:29;;;;;;;14.63;4.57;;;15.30;88.30;;;;;;5011685;28;20036;-75
2022/10/08 06:00:59;;;;;;;15.43;5.20;;;15.30;88.10;;;;;;5011932;28;20109;-75
2022/10/08 06:03:25;;;;;;;15.70;4.63;;;15.40;88.30;;;;;;5011795;28;20113;-75
2022/10/08 06:05:51;;;;;;;14.80;4.70;;;15.40;88.50;;;;;;5011861;28;20114;-75
2022/10/08 06:08:16;;;;;;;12.38;4.82;;;15.40;88.60;;;;;;5011667;28;20034;-76
2022/10/08 06:10:52;;;;;;;22.58;5.60;;;15.40;88.70;;;;;;5011600;28;20026;-75
2022/10/08 06:13:18;;;;;;;17.35;4.70;;;15.40;88.70;;;;;;5011581;28;20371;-75
2022/10/08 06:15:58;;;;;;;16.00;4.57;;;15.50;89.30;;;;;;5011506;28;20087;-76
2022/10/08 06:18:26;;;;;;;22.02;4.95;;;15.50;89.40;;;;;;5011189;28;20556;-75
2022/10/08 06:20:52;;;;;;;17.27;6.13;;;15.60;89.70;;;;;;5011514;28;20026;-75
2022/10/08 06:23:18;;;;;;;18.05;5.53;;;15.60;89.60;;;;;;5029179;28;20045;-75
2022/10/08 06:25:44;;;;;;;20.13;5.72;;;15.70;89.80;;;;;;5030962;28;20026;-75
2022/10/08 06:28:10;;;;;;;14.32;5.75;;;15.70;89.90;;;;;;5030575;28;20036;-76
2022/10/08 06:30:39;;;;;;;19.70;6.55;;;15.80;89.80;;;;;;5030719;28;20066;-74
2022/10/08 06:33:05;;;;;;;28.33;6.10;;;15.90;90.00;;;;;;5028524;28;20033;-75
2022/10/08 06:35:30;;;;;;;15.90;5.55;;;15.90;90.30;;;;;;5028102;28;20486;-75
2022/10/08 06:37:56;;;;;;;9.73;4.25;;;16.00;90.00;;;;;;5028907;28;20030;-75
2022/10/08 06:40:22;;;;;;;12.85;4.95;;;16.10;90.00;;;;;;5027445;28;20077;-75
2022/10/08 06:42:47;;;;;;;15.95;4.85;;;16.10;89.90;;;;;;5028808;28;20041;-76
2022/10/08 06:45:13;;;;;;;20.27;5.38;;;16.20;90.00;;;;;;5028104;28;20025;-76
2022/10/08 06:47:39;;;;;;;20.00;5.60;;;16.30;90.10;;;;;;5029585;28;20040;-75
2022/10/08 06:50:05;;;;;;;15.63;5.50;;;16.40;90.10;;;;;;5030633;28;20032;-75
2022/10/08 06:52:31;;;;;;;32.22;7.22;;;16.40;90.00;;;;;;5030112;28;20495;-75
2022/10/08 06:54:56;;;;;;;25.95;7.53;;;16.50;90.00;;;;;;5030083;28;20074;-76
2022/10/08 06:57:22;;;;;;;28.15;7.25;;;16.50;89.90;;;;;;5030468;28;20074;-76
2022/10/08 06:59:48;;;;;;;25.02;6.28;;;16.60;89.80;;;;;;5103923;27;20023;-75
2022/10/08 07:02:13;;;;;;;21.63;6.10;;;16.60;89.70;;;;;;5133995;27;20094;-75
2022/10/08 07:04:39;;;;;;;35.38;7.72;;;16.70;89.40;;;;;;5134075;27;20102;-77
2022/10/08 07:07:05;;;;;;;40.65;7.78;;;16.70;89.10;;;;;;5111775;27;20029;-76
2022/10/08 07:09:30;;;;;;;20.88;5.38;;;16.70;89.30;;;;;;5029985;28;20021;-75
2022/10/08 07:11:56;;;;;;;20.83;5.88;;;16.70;89.20;;;;;;5029861;28;20026;-81
2022/10/08 07:14:22;;;;;;;14.10;4.90;;;16.70;89.10;;;;;;5059662;27;20026;-77
2022/10/08 07:16:47;;;;;;;7.57;4.60;;;16.80;89.10;;;;;;5134004;27;20065;-76
2022/10/08 07:19:14;;;;;;;17.75;4.93;;;16.90;89.20;;;;;;5134090;27;20019;-76
2022/10/08 07:21:39;;;;;;;20.05;4.47;;;17.00;89.30;;;;;;5133824;27;20072;-84
2022/10/08 07:24:05;;;;;;;11.60;4.28;;;17.00;89.00;;;;;;5133482;27;20031;-76
2022/10/08 07:26:33;;;;;;;10.48;3.97;;;17.10;89.40;;;;;;5133655;27;20426;-76
2022/10/08 07:29:01;;;;;;;14.13;4.07;;;17.10;88.80;;;;;;5134124;27;20015;-76
2022/10/08 07:31:30;;;;;;;11.77;3.92;;;17.10;88.90;;;;;;5133608;27;20106;-76
2022/10/08 07:33:57;;;;;;;10.23;3.35;;;17.10;89.00;;;;;;5133349;27;20022;-76
2022/10/08 07:36:24;;;;;;;10.43;3.40;;;17.20;89.20;;;;;;5133963;27;20023;-76
2022/10/08 07:38:55;;;;;;;12.07;3.50;;;17.20;89.00;;;;;;5133732;27;20026;-75
2022/10/08 07:41:20;;;;;;;12.05;3.50;;;17.20;88.90;;;;;;5133895;27;20023;-76
2022/10/08 07:43:50;;;;;;;11.70;4.65;;;17.20;88.80;;;;;;5133841;27;20190;-75
2022/10/08 07:46:16;;;;;;;8.38;3.55;;;17.20;89.00;;;;;;5133725;27;20019;-74
2022/10/08 07:48:42;;;;;;;9.02;3.83;;;17.30;89.00;;;;;;5133703;27;20023;-75
2022/10/08 07:51:13;;;;;;;7.65;2.50;;;17.30;89.00;;;;;;5133958;27;20396;-76
2022/10/08 07:53:39;;;;;;;6.47;2.63;;;17.30;88.70;;;;;;5133584;27;20055;-75
2022/10/08 07:56:06;;;;;;;6.38;2.72;;;17.40;88.30;;;;;;5133836;27;20492;-76
2022/10/08 07:58:32;;;;;;;9.30;3.47;;;17.40;88.10;;;;;;5133516;27;20091;-76
2022/10/08 08:01:03;;;;;;;5.15;2.30;;;17.50;88.00;;;;;;5133767;27;20046;-81
2022/10/08 08:03:29;;;;;;;14.18;3.30;;;17.50;88.00;;;;;;5133695;27;20039;-83
2022/10/08 08:06:00;;;;;;;17.45;3.92;;;17.50;87.60;;;;;;5133706;27;20019;-76
2022/10/08 08:08:26;;;;;;;25.90;3.97;;;17.60;88.10;;;;;;5133848;27;20064;-75
2022/10/08 08:11:00;;;;;;;12.93;4.32;;;17.70;88.10;;;;;;5133685;27;20477;-76
2022/10/08 08:13:27;;;;;;;7.60;3.65;;;17.70;88.20;;;;;;5133616;27;20020;-76
2022/10/08 08:15:57;;;;;;;8.23;3.65;;;17.80;88.20;;;;;;5133425;27;20549;-75
2022/10/08 08:18:24;;;;;;;10.05;3.60;;;17.90;88.20;;;;;;5133413;27;20025;-76
2022/10/08 08:20:57;;;;;;;11.77;4.07;;;18.00;88.10;;;;;;5133854;27;20476;-76
2022/10/08 08:23:26;;;;;;;11.23;3.72;;;18.00;87.80;;;;;;5133676;27;20148;-76
2022/10/08 08:25:52;;;;;;;6.47;3.00;;;18.00;87.60;;;;;;5136311;27;20020;-76
2022/10/08 08:28:18;;;;;;;8.60;3.00;;;18.10;87.30;;;;;;5137161;27;20038;-81
2022/10/08 08:30:43;;;;;;;9.95;3.90;;;18.10;86.90;;;;;;5033419;27;20030;-81
2022/10/08 08:33:09;;;;;;;7.47;3.10;;;18.20;86.60;;;;;;5032348;28;20029;-80
2022/10/08 08:35:35;;;;;;;9.65;3.13;;;18.20;87.20;;;;;;5032499;28;20479;-83
2022/10/08 08:38:00;;;;;;;5.13;2.28;;;18.30;86.70;;;;;;5032216;28;20036;-75
2022/10/08 08:40:27;;;;;;;6.55;2.60;;;18.30;87.10;;;;;;5032089;28;20017;-77
2022/10/08 08:42:55;;;;;;;5.97;2.67;;;18.40;86.70;;;;;;5031984;28;20518;-78
2022/10/08 08:45:24;;;;;;;5.75;2.50;;;18.50;85.90;;;;;;5032215;28;20041;-83
2022/10/08 08:48:06;;;;;;;4.78;2.20;;;18.60;85.50;;;;;;5032463;28;20040;-76
2022/10/08 08:50:35;;;;;;;4.55;2.20;;;18.60;85.10;;;;;;5032401;28;20057;-76
2022/10/08 08:53:02;;;;;;;14.77;2.80;;;18.60;85.00;;;;;;5032139;28;20046;-77
2022/10/08 08:55:50;;;;;;;9.93;3.30;;;18.70;85.10;;;;;;5032254;28;20025;-78
2022/10/08 08:58:57;;;;;;;13.75;3.10;;;18.70;85.50;;;;;;5032267;28;20030;-77
2022/10/08 09:01:36;;;;;;;17.55;3.53;;;18.80;85.70;;;;;;5032035;28;20030;-79
2022/10/08 09:04:32;;;;;;;12.77;3.63;;;18.90;85.40;;;;;;5032163;28;20113;-81
2022/10/08 09:07:00;;;;;;;4.13;2.45;;;19.00;85.60;;;;;;5031730;28;20033;-76
2022/10/08 09:09:37;;;;;;;5.72;2.70;;;19.00;84.80;;;;;;5031909;28;20013;-77
2022/10/08 09:12:17;;;;;;;9.68;2.97;;;19.10;84.60;;;;;;5032326;28;20056;-81
2022/10/08 09:14:47;;;;;;;8.93;3.50;;;19.10;84.20;;;;;;5032083;28;20479;-78
2022/10/08 09:17:17;;;;;;;8.98;3.47;;;19.20;84.30;;;;;;5032330;28;20528;-75
2022/10/08 09:19:43;;;;;;;7.60;3.00;;;19.30;83.50;;;;;;5031745;28;20033;-77
2022/10/08 09:22:21;;;;;;;8.63;4.07;;;19.30;83.20;;;;;;5032131;28;20018;-76
2022/10/08 09:25:02;;;;;;;34.10;4.40;;;19.30;83.70;;;;;;5032088;28;20085;-77
2022/10/08 09:27:45;;;;;;;11.60;3.83;;;19.40;84.50;;;;;;5031999;28;20021;-75
2022/10/08 09:30:23;;;;;;;7.43;3.63;;;19.40;83.90;;;;;;5031838;28;20078;-76
2022/10/08 09:32:53;;;;;;;8.82;4.47;;;19.50;83.10;;;;;;5031678;28;20030;-77
2022/10/08 09:35:20;;;;;;;11.80;3.78;;;19.50;83.50;;;;;;5031601;28;20494;-75
2022/10/08 09:37:47;;;;;;;15.75;4.03;;;19.50;84.20;;;;;;5031830;28;20057;-75
2022/10/08 09:40:23;;;;;;;10.55;4.05;;;19.50;84.50;;;;;;5031961;28;20025;-77
2022/10/08 09:43:18;;;;;;;14.65;4.05;;;19.60;84.80;;;;;;5031362;28;20120;-76
2022/10/08 09:45:46;;;;;;;13.23;3.90;;;19.70;85.20;;;;;;5031463;28;20536;-78
2022/10/08 09:48:15;;;;;;;9.20;4.13;;;19.70;84.70;;;;;;5031798;28;20102;-78
2022/10/08 09:50:50;;;;;;;7.78;3.20;;;19.80;84.20;;;;;;5031316;28;20062;-77
2022/10/08 09:53:16;;;;;;;8.70;3.33;;;19.70;84.20;;;;;;5031397;28;20495;-76
2022/10/08 09:55:56;;;;;;;6.43;2.95;;;19.80;83.60;;;;;;5031231;28;20104;-78
2022/10/08 09:58:22;;;;;;;10.52;3.42;;;19.70;83.40;;;;;;5031234;28;20029;-76
2022/10/08 10:01:03;;;;;;;9.25;3.10;;;19.80;84.60;;;;;;5031341;28;20119;-75
2022/10/08 10:03:30;;;;;;;15.40;3.40;;;19.80;84.50;;;;;;5031158;28;20041;-76
2022/10/08 10:05:58;;;;;;;12.80;3.72;;;19.90;84.50;;;;;;5031039;28;20108;-76
2022/10/08 10:08:54;;;;;;;10.82;3.30;;;19.90;84.50;;;;;;5031631;28;20480;-76
2022/10/08 10:11:33;;;;;;;10.07;3.67;;;20.00;84.20;;;;;;5031331;28;20030;-75
2022/10/08 10:14:13;;;;;;;7.80;3.08;;;20.10;83.20;;;;;;5030150;28;20387;-75
2022/10/08 10:16:42;;;;;;;14.60;3.00;;;20.10;82.70;;;;;;5031198;28;20494;-75
2022/10/08 10:19:28;;;;;;;9.50;2.72;;;20.20;81.40;;;;;;5031396;28;20086;-79
2022/10/08 10:21:54;;;;;;;8.85;2.42;;;20.40;81.60;;;;;;5030895;28;20490;-77
2022/10/08 10:24:29;;;;;;;9.93;3.30;;;20.40;80.20;;;;;;5030795;28;20044;-76
2022/10/08 10:27:05;;;;;;;9.93;2.60;;;20.50;79.10;;;;;;5030792;28;20017;-75
2022/10/08 10:29:57;;;;;;;9.25;2.63;;;20.60;78.50;;;;;;5031172;28;20048;-80
2022/10/08 10:32:29;;;;;;;10.70;3.22;;;20.60;78.50;;;;;;5023146;28;20049;-79
2022/10/08 10:35:10;;;;;;;10.45;2.80;;;20.60;78.70;;;;;;5031129;28;20025;-79
2022/10/08 10:37:45;;;;;;;11.50;3.08;;;20.70;78.30;;;;;;5030923;28;20041;-80
2022/10/08 10:40:46;;;;;;;7.47;2.40;;;20.70;78.50;;;;;;5030823;28;20032;-75
2022/10/08 10:43:22;;;;;;;4.93;2.30;;;20.80;77.90;;;;;;5030846;28;20137;-79
2022/10/08 10:46:11;;;;;;;8.55;2.28;;;20.80;77.80;;;;;;5030743;28;20033;-77
2022/10/08 10:48:37;;;;;;;5.90;2.47;;;20.90;75.80;;;;;;5036405;28;20041;-79
2022/10/08 10:51:12;;;;;;;14.52;2.85;;;20.90;74.60;;;;;;5030681;28;20035;-75
2022/10/08 10:53:44;;;;;;;9.25;2.03;;;21.00;73.90;;;;;;5030262;28;20053;-75
2022/10/08 10:56:19;;;;;;;4.50;2.47;;;21.00;74.60;;;;;;5030324;28;20026;-75
2022/10/08 10:59:07;;;;;;;4.68;2.50;;;21.10;73.60;;;;;;5030318;28;20463;-78
2022/10/08 11:01:45;;;;;;;6.60;2.45;;;21.10;73.70;;;;;;5030238;28;20067;-79
2022/10/08 11:04:48;;;;;;;10.63;2.28;;;21.20;74.20;;;;;;5030253;28;20044;-76
2022/10/08 11:07:46;;;;;;;4.95;2.30;;;21.20;75.30;;;;;;5030203;28;20078;-75
2022/10/08 11:10:15;;;;;;;10.65;2.45;;;21.30;74.40;;;;;;5030004;27;20063;-75
2022/10/08 11:12:58;;;;;;;8.27;2.60;;;21.40;73.70;;;;;;5030235;28;20428;-79
2022/10/08 11:16:00;;;;;;;8.00;2.50;;;21.40;74.00;;;;;;5030307;28;20026;-80
2022/10/08 11:18:37;;;;;;;12.18;2.78;;;21.40;73.90;;;;;;5030307;28;20033;-76
2022/10/08 11:21:30;;;;;;;8.40;2.33;;;21.40;74.10;;;;;;5029909;28;20021;-75
2022/10/08 11:24:33;;;;;;;7.82;2.47;;;21.50;73.00;;;;;;5030140;28;20065;-75
2022/10/08 11:27:17;;;;;;;6.75;2.97;;;21.50;71.90;;;;;;5029671;28;20037;-76
2022/10/08 11:30:13;;;;;;;12.40;2.40;;;21.50;72.50;;;;;;5029715;28;20506;-78
2022/10/08 11:32:41;;;;;;;3.10;2.10;;;21.50;71.70;;;;;;5029859;28;20547;-76
2022/10/08 11:35:25;;;;;;;6.13;2.30;;;21.50;71.60;;;;;;5029505;28;20044;-77
2022/10/08 11:37:55;;;;;;;6.85;2.22;;;21.60;72.70;;;;;;5029504;28;20072;-76
2022/10/08 11:40:33;;;;;;;12.13;2.35;;;21.60;70.90;;;;;;5029788;28;20037;-76
2022/10/08 11:43:05;;;;;;;8.60;2.35;;;21.60;68.90;;;;;;5029788;28;20049;-75
2022/10/08 11:45:35;;;;;;;7.30;2.60;;;21.60;69.90;;;;;;5029569;28;20049;-76
2022/10/08 11:48:35;;;;;;;5.57;2.40;;;21.60;71.00;;;;;;5029873;28;20029;-74
2022/10/08 12:04:36;;;;;;;8.30;2.10;;;21.80;72.10;;;;;;5127584;27;20523;-77
2022/10/08 12:07:20;;;;;;;8.10;1.90;;;21.80;72.80;;;;;;5137088;27;20129;-79
2022/10/08 12:10:04;;;;;;;13.25;2.58;;;21.90;69.80;;;;;;5137716;27;20101;-81
2022/10/08 12:12:48;;;;;;;11.02;2.25;;;21.90;69.00;;;;;;5137737;27;20114;-76
2022/10/08 12:15:22;;;;;;;11.93;2.60;;;21.90;69.60;;;;;;5137421;27;20552;-78
2022/10/08 12:18:09;;;;;;;7.43;2.40;;;21.90;69.70;;;;;;5137523;27;20110;-76
2022/10/08 12:20:37;;;;;;;10.82;2.63;;;22.00;69.80;;;;;;5137183;27;20050;-76
2022/10/08 12:23:33;;;;;;;6.82;2.10;;;22.00;69.70;;;;;;5136422;27;20063;-79
2022/10/08 12:25:58;;;;;;;7.97;2.60;;;22.00;68.60;;;;;;5137029;27;20027;-77
2022/10/08 12:28:27;;;;;;;4.55;2.08;;;22.00;67.90;;;;;;5137068;27;20035;-82
2022/10/08 12:30:57;;;;;;;14.23;2.70;;;22.00;68.80;;;;;;5136843;27;20524;-76
2022/10/08 12:33:24;;;;;;;6.32;2.35;;;22.00;69.00;;;;;;5137407;27;20110;-76
2022/10/08 12:36:09;;;;;;;7.35;2.53;;;22.10;69.20;;;;;;5137057;27;20031;-77
2022/10/08 12:38:49;;;;;;;12.48;2.80;;;22.10;69.00;;;;;;5137134;27;20031;-77
2022/10/08 12:41:27;;;;;;;14.60;2.85;;;22.10;68.80;;;;;;5137293;27;20027;-77
2022/10/08 12:43:58;;;;;;;9.85;3.20;;;22.00;68.40;;;;;;5136879;27;20054;-81
2022/10/08 12:46:48;;;;;;;11.43;3.35;;;22.00;68.40;;;;;;5137045;27;20129;-77
2022/10/08 12:49:40;;;;;;;11.23;2.85;;;22.00;69.40;;;;;;5136863;27;20059;-77
2022/10/08 12:52:09;;;;;;;7.30;2.60;;;22.00;69.60;;;;;;5136694;27;20043;-78
2022/10/08 12:54:36;;;;;;;11.95;3.08;;;22.00;69.40;;;;;;5136972;27;20433;-77
2022/10/08 12:57:08;;;;;;;8.27;2.60;;;22.00;70.10;;;;;;5136645;27;20043;-77
2022/10/08 12:59:36;;;;;;;11.45;3.28;;;22.00;69.90;;;;;;5136783;27;20156;-77
2022/10/08 13:02:01;;;;;;;11.43;2.58;;;22.10;69.80;;;;;;5136534;27;20031;-76
2022/10/08 13:04:31;;;;;;;7.03;2.97;;;22.10;70.40;;;;;;5136348;27;20047;-76
2022/10/08 13:06:57;;;;;;;11.15;2.72;;;22.10;70.40;;;;;;5136360;27;20042;-79
2022/10/08 13:09:30;;;;;;;6.90;2.60;;;22.10;70.00;;;;;;5136281;27;20404;-77
2022/10/08 13:11:58;;;;;;;10.52;2.67;;;22.10;69.80;;;;;;5135552;27;20023;-77
2022/10/08 13:14:25;;;;;;;6.97;2.65;;;22.20;69.50;;;;;;5135866;27;20365;-77
2022/10/08 13:16:50;;;;;;;16.27;2.90;;;22.20;70.10;;;;;;5136028;27;20039;-77
2022/10/08 13:19:24;;;;;;;10.18;2.92;;;22.20;69.30;;;;;;5136511;27;20027;-77